WIII/CGK METAR and TAF weather

Enter ICAO airport designator
Station Type Date Time Source
WIII METAR 2019/12/09 06:00 UTC NOAA

WIII 090600Z 02013KT 340V050 9999 FEW020 33/23 Q1009 NOSIG


Station Type Date Time Source
WIII Decoded METAR 2019/12/09 06:00 UTC NOAA

Jakarta / Soekarno-Hatta, Indonesia (WIII) 06-07S 106-39E 8M
Dec 09, 2019 - 01:00 AM EST / 2019.12.09 0600 UTC
Wind: from the NNE (020 degrees) at 15 MPH (13 KT) (direction variable):0
Visibility: greater than 7 mile(s):0
Sky conditions: mostly clear
Temperature: 91 F (33 C)
Heat index: 99.1 F (37.3 C):1
Dew Point: 73 F (23 C)
Relative Humidity: 55%
Pressure (altimeter): 29.80 in. Hg (1009 hPa)
ob: WIII 090600Z 02013KT 340V050 9999 FEW020 33/23 Q1009 NOSIG
cycle: 6

Station Type Date Time Source
WIII TAF 2019/12/09 06:49 UTC NOAA

TAF WIII 090500Z 0906/1012 35010KT 9000 SCT020
BECMG 0912/0914 22005KT 5000 HZ

Example: see airport list